Time;durP1;ratioP1;P1;durP2;ratioP2;P2;SDS_P1;SDS_P2;PMS_P1;PMS_P2;Temp;Humidity;BMP_temperature;BMP_pressure;BME280_temperature;BME280_humidity;BME280_pressure;Samples;Min_cycle;Max_cycle;Signal;HPM_P1;HPM_P2
2021/10/27 00:01:46;;;;;;;8.88;4.82;;;;;;;4.95;48.62;99844.41;5117421;28;20047;-53
2021/10/27 00:04:12;;;;;;;12.30;5.50;;;;;;;4.95;48.39;99850.56;5117475;28;20030;-54
2021/10/27 00:06:38;;;;;;;11.00;5.35;;;;;;;4.94;48.44;99842.66;5110597;28;20032;-55
2021/10/27 00:09:04;;;;;;;8.55;5.00;;;;;;;4.96;48.44;99854.09;5096809;28;20039;-55
2021/10/27 00:11:31;;;;;;;13.57;5.88;;;;;;;4.92;48.80;99841.91;5097046;28;20062;-55
2021/10/27 00:13:57;;;;;;;9.10;5.53;;;;;;;4.92;48.11;99852.50;5097132;28;20039;-55
2021/10/27 00:16:22;;;;;;;12.00;5.63;;;;;;;4.92;48.43;99837.47;5098289;28;20059;-51
2021/10/27 00:18:48;;;;;;;7.78;4.90;;;;;;;4.67;48.83;99803.50;5078584;28;20071;-49
2021/10/27 00:21:13;;;;;;;12.07;5.47;;;;;;;4.90;48.70;99839.34;5096854;28;20024;-55
2021/10/27 00:23:39;;;;;;;9.35;5.45;;;;;;;4.79;48.30;99821.41;5097313;28;20486;-53
2021/10/27 00:26:05;;;;;;;9.65;5.18;;;;;;;4.86;48.67;99830.72;5097270;28;20024;-52
2021/10/27 00:28:31;;;;;;;9.90;5.13;;;;;;;4.86;48.30;99835.16;5095841;28;20111;-54
2021/10/27 00:30:56;;;;;;;10.65;5.82;;;;;;;4.84;48.43;99827.28;5093274;28;20123;-56
2021/10/27 00:33:22;;;;;;;10.98;5.85;;;;;;;4.84;48.71;99821.97;5094212;28;20384;-55
2021/10/27 00:35:48;;;;;;;10.52;5.85;;;;;;;4.83;49.44;99825.56;5093828;28;20456;-54
2021/10/27 00:38:14;;;;;;;9.57;5.68;;;;;;;4.81;49.20;99821.28;5099387;28;20459;-56
2021/10/27 00:40:39;;;;;;;11.88;5.70;;;;;;;4.73;49.46;99809.31;5113524;28;20039;-53
2021/10/27 00:43:05;;;;;;;7.75;4.75;;;;;;;4.79;49.23;99817.88;5114437;28;20520;-57
2021/10/27 00:45:31;;;;;;;9.73;4.93;;;;;;;4.76;48.94;99802.13;5113451;28;20030;-50
2021/10/27 00:47:56;;;;;;;10.70;5.30;;;;;;;4.76;49.43;99818.03;5110485;28;20036;-52
2021/10/27 00:50:22;;;;;;;11.55;5.55;;;;;;;4.58;49.21;99773.06;5112449;28;20030;-52
2021/10/27 00:52:48;;;;;;;10.20;5.43;;;;;;;4.79;49.30;99804.59;5114182;28;20349;-56
2021/10/27 00:55:14;;;;;;;12.07;6.03;;;;;;;4.77;48.91;99814.44;5113436;28;20490;-53
2021/10/27 00:57:39;;;;;;;9.68;5.18;;;;;;;4.79;49.39;99801.97;5113410;28;20077;-50
2021/10/27 01:00:07;;;;;;;9.02;5.57;;;;;;;4.77;49.26;99795.88;5097426;28;20430;-49
2021/10/27 01:02:36;;;;;;;13.20;5.85;;;;;;;4.74;49.18;99800.44;5093263;28;20071;-55
2021/10/27 01:05:02;;;;;;;12.23;5.45;;;;;;;4.71;49.49;99792.66;5092715;28;20043;-53
2021/10/27 01:07:30;;;;;;;10.27;5.80;;;;;;;4.68;49.25;99794.59;5092617;28;20101;-55
2021/10/27 01:09:56;;;;;;;10.57;5.28;;;;;;;4.68;49.49;99778.69;5084354;28;20452;-55
2021/10/27 01:12:22;;;;;;;9.48;5.35;;;;;;;4.67;49.75;99783.16;5133091;27;20122;-52
2021/10/27 01:14:48;;;;;;;11.13;5.55;;;;;;;4.67;49.78;99780.50;5133003;27;20058;-55
2021/10/27 01:17:16;;;;;;;10.40;6.15;;;;;;;4.68;48.94;99784.00;5132971;27;20474;-55
2021/10/27 01:19:48;;;;;;;10.75;5.60;;;;;;;4.70;49.36;99777.69;5125080;27;20028;-54
2021/10/27 01:22:15;;;;;;;11.02;5.57;;;;;;;4.66;49.71;99765.53;5092238;28;20031;-49
2021/10/27 01:24:41;;;;;;;9.35;5.90;;;;;;;4.64;49.92;99767.44;5112797;27;20031;-51
2021/10/27 01:27:07;;;;;;;10.90;5.50;;;;;;;4.64;49.39;99763.91;5133226;27;20031;-51
2021/10/27 01:29:33;;;;;;;9.65;5.82;;;;;;;4.59;49.76;99757.06;5133451;27;20031;-54
2021/10/27 01:31:59;;;;;;;11.65;5.82;;;;;;;4.62;50.12;99761.34;5102843;27;20034;-55
2021/10/27 01:34:24;;;;;;;8.35;5.45;;;;;;;4.60;50.32;99761.44;5132796;27;20387;-54
2021/10/27 01:36:50;;;;;;;12.38;5.97;;;;;;;4.61;49.96;99757.00;5132770;27;20463;-56
2021/10/27 01:39:16;;;;;;;11.52;5.68;;;;;;;4.61;50.21;99772.91;5132752;27;20023;-52
2021/10/27 01:41:41;;;;;;;10.98;5.68;;;;;;;4.59;49.84;99754.41;5114855;27;20145;-55
2021/10/27 01:44:07;;;;;;;12.82;5.90;;;;;;;4.60;50.02;99768.53;5132457;27;20147;-51
2021/10/27 01:46:37;;;;;;;11.35;6.00;;;;;;;4.66;49.59;99762.00;5131702;27;20051;-52
2021/10/27 01:49:07;;;;;;;11.13;5.50;;;;;;;4.64;50.29;99751.50;5132635;27;20035;-53
2021/10/27 01:51:34;;;;;;;12.00;5.70;;;;;;;4.43;49.68;99722.63;5121704;27;20031;-56
2021/10/27 01:54:00;;;;;;;10.43;5.70;;;;;;;4.59;50.19;99743.81;5091669;28;20047;-55
2021/10/27 01:56:26;;;;;;;11.68;5.97;;;;;;;4.58;50.23;99735.94;5091786;28;20082;-51
2021/10/27 01:58:52;;;;;;;11.27;6.00;;;;;;;4.60;50.13;99742.03;5092092;28;20456;-55
2021/10/27 02:01:18;;;;;;;10.55;5.85;;;;;;;4.56;50.07;99737.81;5091663;28;20033;-54
2021/10/27 02:03:44;;;;;;;11.18;6.50;;;;;;;4.51;50.54;99739.88;5091620;28;20061;-52
2021/10/27 02:06:11;;;;;;;10.40;6.25;;;;;;;4.57;51.09;99740.41;5112252;28;20118;-56
2021/10/27 02:08:36;;;;;;;12.32;5.80;;;;;;;4.52;50.49;99742.47;5112590;28;20066;-52
2021/10/27 02:11:02;;;;;;;10.57;6.25;;;;;;;4.53;50.72;99738.00;5112149;28;20039;-53
2021/10/27 02:13:28;;;;;;;12.30;5.72;;;;;;;4.53;50.10;99740.66;5102830;28;20051;-55
2021/10/27 02:15:54;;;;;;;11.52;6.03;;;;;;;4.49;50.46;99734.69;5091222;28;20046;-53
2021/10/27 02:18:21;;;;;;;10.77;5.90;;;;;;;4.53;50.65;99732.69;5092184;28;20032;-54
2021/10/27 02:20:47;;;;;;;11.90;5.80;;;;;;;4.52;50.39;99731.84;5073558;28;20028;-53
2021/10/27 02:23:14;;;;;;;11.32;5.72;;;;;;;4.53;50.13;99733.56;5092638;28;20027;-54
2021/10/27 02:25:39;;;;;;;11.45;5.47;;;;;;;4.52;50.60;99715.94;5111832;28;20468;-55
2021/10/27 02:28:05;;;;;;;11.25;6.28;;;;;;;4.51;50.71;99723.97;5112159;28;20084;-54
2021/10/27 02:30:31;;;;;;;12.57;6.15;;;;;;;4.45;50.61;99710.13;5111988;28;20379;-55
2021/10/27 02:32:56;;;;;;;12.48;6.38;;;;;;;4.47;51.07;99718.00;5111446;28;20037;-54
2021/10/27 02:35:22;;;;;;;15.20;5.70;;;;;;;4.45;51.32;99731.34;5095396;28;20078;-56
2021/10/27 02:37:47;;;;;;;10.88;5.75;;;;;;;4.19;51.42;99678.97;5091368;28;20078;-53
2021/10/27 02:40:14;;;;;;;14.15;6.18;;;;;;;4.41;51.26;99719.22;5091323;28;20384;-55
2021/10/27 02:42:41;;;;;;;11.15;5.95;;;;;;;4.19;50.82;99684.25;5090899;28;20040;-55
2021/10/27 02:45:11;;;;;;;12.02;6.25;;;;;;;4.19;51.11;99677.16;5092704;28;20028;-55
2021/10/27 02:47:38;;;;;;;9.30;5.80;;;;;;;4.29;51.82;99699.56;5073615;28;20077;-54
2021/10/27 02:50:05;;;;;;;10.98;6.03;;;;;;;4.33;51.77;99705.50;5090920;28;20024;-53
2021/10/27 02:52:31;;;;;;;11.50;5.80;;;;;;;4.29;51.49;99698.69;5090186;28;20066;-53
2021/10/27 02:54:57;;;;;;;11.93;5.30;;;;;;;4.27;51.82;99701.44;5091793;28;20037;-54
2021/10/27 02:57:23;;;;;;;9.75;5.53;;;;;;;4.25;52.46;99703.31;5090861;28;20036;-51
2021/10/27 02:59:49;;;;;;;11.82;6.03;;;;;;;4.22;51.64;99702.63;5090934;28;20028;-53
2021/10/27 03:02:15;;;;;;;12.98;6.53;;;;;;;4.19;52.16;99695.69;5072446;28;20020;-55
2021/10/27 03:04:40;;;;;;;8.48;5.57;;;;;;;4.18;52.35;99686.03;5090658;28;20411;-54
2021/10/27 03:07:06;;;;;;;10.68;5.90;;;;;;;3.97;52.27;99651.03;5110896;28;20039;-53
2021/10/27 03:09:31;;;;;;;10.95;5.63;;;;;;;4.23;52.19;99684.00;5111052;28;20443;-50
2021/10/27 03:11:57;;;;;;;13.48;5.95;;;;;;;4.27;52.07;99684.66;5110869;28;20039;-56
2021/10/27 03:14:22;;;;;;;10.35;5.78;;;;;;;4.21;51.70;99669.13;5111205;28;20035;-52
2021/10/27 03:16:48;;;;;;;12.10;6.18;;;;;;;4.21;52.22;99659.34;5100106;28;20036;-52
2021/10/27 03:19:14;;;;;;;9.50;5.50;;;;;;;4.24;52.20;99675.13;5090324;28;20387;-57
2021/10/27 03:21:39;;;;;;;11.48;5.50;;;;;;;4.22;52.39;99668.19;5072853;28;20055;-53
2021/10/27 03:24:07;;;;;;;10.85;5.82;;;;;;;4.25;52.49;99671.53;5090606;28;20475;-53
2021/10/27 03:26:32;;;;;;;13.13;5.78;;;;;;;3.99;52.41;99623.50;5098829;28;20036;-56
2021/10/27 03:28:58;;;;;;;12.98;5.65;;;;;;;4.19;52.88;99655.13;5111192;28;20111;-53
2021/10/27 03:31:24;;;;;;;10.07;5.60;;;;;;;4.10;52.79;99645.88;5075237;28;20032;-55
2021/10/27 03:33:50;;;;;;;11.05;6.07;;;;;;;3.95;52.66;99608.72;5090497;28;20111;-51
2021/10/27 03:36:16;;;;;;;11.57;5.72;;;;;;;4.19;52.47;99645.34;5090764;28;20082;-52
2021/10/27 03:38:42;;;;;;;13.73;6.30;;;;;;;4.19;52.92;99649.81;5090648;28;20032;-56
2021/10/27 03:41:07;;;;;;;9.57;5.57;;;;;;;4.22;53.02;99649.63;5091119;28;20628;-56
2021/10/27 03:43:33;;;;;;;10.50;5.75;;;;;;;4.22;52.60;99639.03;5072383;28;20032;-57
2021/10/27 03:45:59;;;;;;;11.40;5.90;;;;;;;4.18;52.86;99635.69;5090548;28;20124;-54
2021/10/27 03:48:25;;;;;;;9.23;5.78;;;;;;;4.22;52.88;99634.59;5090267;28;20476;-54
2021/10/27 03:50:50;;;;;;;11.02;5.90;;;;;;;4.19;53.40;99629.44;5090888;28;20059;-56
2021/10/27 03:53:16;;;;;;;10.95;5.75;;;;;;;4.22;52.52;99633.72;5109728;28;20024;-55
2021/10/27 03:55:42;;;;;;;11.60;6.40;;;;;;;4.22;53.25;99628.44;5110737;28;20383;-56
2021/10/27 03:58:07;;;;;;;13.10;5.90;;;;;;;4.23;52.97;99630.13;5110656;28;20031;-55
2021/10/27 04:00:36;;;;;;;9.27;5.28;;;;;;;4.19;53.45;99618.00;5110425;28;20106;-54
2021/10/27 04:03:01;;;;;;;11.25;5.18;;;;;;;4.23;53.67;99619.53;5091792;28;20131;-52
2021/10/27 04:05:27;;;;;;;13.57;6.00;;;;;;;4.22;53.13;99617.84;5093846;28;20107;-55
2021/10/27 04:07:53;;;;;;;11.05;6.25;;;;;;;4.26;53.27;99619.34;5093916;28;20468;-54
2021/10/27 04:10:18;;;;;;;10.52;5.95;;;;;;;4.22;53.11;99615.19;5093834;28;20047;-55
2021/10/27 04:12:44;;;;;;;12.40;6.03;;;;;;;4.24;53.14;99615.94;5084426;28;20039;-54
2021/10/27 04:15:11;;;;;;;11.82;5.40;;;;;;;4.27;53.15;99626.38;5096628;28;20059;-59
2021/10/27 04:17:37;;;;;;;12.23;6.50;;;;;;;4.27;53.34;99621.06;5114527;28;20040;-53
2021/10/27 04:20:05;;;;;;;12.85;5.88;;;;;;;4.28;53.31;99633.38;5114068;28;20038;-56
2021/10/27 04:22:36;;;;;;;16.27;5.97;;;;;;;4.31;53.03;99619.94;5112578;28;20483;-54
2021/10/27 04:25:01;;;;;;;12.32;6.05;;;;;;;4.31;53.29;99618.16;5114504;28;20035;-57
2021/10/27 04:27:29;;;;;;;14.23;5.82;;;;;;;4.31;53.14;99607.56;5113952;28;20110;-54
2021/10/27 04:29:54;;;;;;;10.93;6.10;;;;;;;4.31;53.37;99615.50;5113800;28;20080;-53
2021/10/27 04:32:20;;;;;;;15.63;5.95;;;;;;;4.37;52.99;99605.47;5112574;28;20031;-52
2021/10/27 04:34:45;;;;;;;15.02;6.70;;;;;;;4.30;53.01;99600.53;5109199;28;20447;-57
2021/10/27 04:37:11;;;;;;;13.32;6.28;;;;;;;4.38;53.39;99613.34;5095608;28;20027;-55
2021/10/27 04:39:36;;;;;;;11.93;6.38;;;;;;;4.40;53.02;99615.91;5095917;28;20131;-53
2021/10/27 04:42:03;;;;;;;14.82;6.97;;;;;;;4.43;52.91;99607.75;5113489;28;20028;-56
2021/10/27 04:44:29;;;;;;;11.13;6.10;;;;;;;4.46;53.23;99612.88;5112269;28;20288;-57
2021/10/27 04:46:56;;;;;;;11.32;6.68;;;;;;;4.50;52.68;99595.00;5113607;28;20063;-57
2021/10/27 04:49:22;;;;;;;14.73;6.57;;;;;;;4.50;52.57;99600.31;5113250;28;20415;-56
2021/10/27 04:51:48;;;;;;;14.68;6.30;;;;;;;4.47;52.06;99585.47;5113573;28;20038;-55
2021/10/27 04:54:14;;;;;;;11.25;6.30;;;;;;;4.53;52.62;99590.38;5111437;28;20115;-57
2021/10/27 04:56:40;;;;;;;17.98;7.20;;;;;;;4.58;52.48;99603.34;5113632;28;20042;-55
2021/10/27 04:59:06;;;;;;;11.90;6.90;;;;;;;4.60;52.49;99601.50;5113558;28;20019;-53
2021/10/27 05:01:31;;;;;;;12.38;6.47;;;;;;;4.67;52.25;99599.31;5113003;28;20042;-54
2021/10/27 05:03:57;;;;;;;15.68;7.22;;;;;;;4.59;52.82;99583.88;5111129;28;20027;-55
2021/10/27 05:06:23;;;;;;;20.27;6.93;;;;;;;4.77;52.26;99605.78;5095043;28;20031;-56
2021/10/27 05:08:48;;;;;;;16.63;7.13;;;;;;;4.85;52.22;99605.31;5093943;28;20758;-56
2021/10/27 05:11:14;;;;;;;14.52;7.30;;;;;;;4.89;51.84;99606.84;5092582;28;20496;-55
2021/10/27 05:13:40;;;;;;;16.58;7.35;;;;;;;4.99;51.88;99610.63;5092655;28;20040;-51
2021/10/27 05:16:05;;;;;;;17.73;7.50;;;;;;;5.02;51.31;99615.75;5103769;28;20074;-56
2021/10/27 05:18:31;;;;;;;17.63;7.20;;;;;;;5.09;51.42;99612.75;5113013;28;20120;-55
2021/10/27 05:20:56;;;;;;;10.18;6.60;;;;;;;5.12;51.53;99612.53;5112650;28;20110;-54
2021/10/27 05:23:22;;;;;;;14.10;6.93;;;;;;;5.15;51.59;99607.88;5113046;28;20463;-53
2021/10/27 05:25:48;;;;;;;15.63;7.75;;;;;;;5.19;51.33;99613.88;5111097;28;20057;-57
2021/10/27 05:28:14;;;;;;;15.10;7.03;;;;;;;5.27;51.27;99605.44;5112564;28;20076;-53
2021/10/27 05:30:40;;;;;;;14.00;7.57;;;;;;;5.28;50.91;99602.66;5113274;28;20035;-56
2021/10/27 05:33:05;;;;;;;10.50;6.80;;;;;;;5.28;50.64;99592.03;5112559;28;20024;-53
2021/10/27 05:35:32;;;;;;;15.05;7.18;;;;;;;5.38;50.38;99602.94;5093630;28;20036;-54
2021/10/27 05:37:59;;;;;;;14.35;6.95;;;;;;;5.42;50.60;99593.84;5108568;28;20035;-57
2021/10/27 05:40:27;;;;;;;13.85;7.25;;;;;;;5.31;50.18;99568.00;5112759;28;20024;-57
2021/10/27 05:42:52;;;;;;;18.05;7.07;;;;;;;5.53;50.67;99601.13;5112652;28;20062;-57
2021/10/27 05:45:22;;;;;;;15.48;7.10;;;;;;;5.49;50.56;99594.31;5112380;28;20476;-57
2021/10/27 05:47:51;;;;;;;14.43;7.15;;;;;;;5.60;50.57;99607.78;5110551;28;20091;-55
2021/10/27 05:55:32;;;;;;;13.20;7.05;;;;;;;5.71;49.65;99571.69;5095641;28;20356;-60
2021/10/27 05:57:57;;;;;;;16.02;7.45;;;;;;;5.82;49.75;99582.50;5085373;28;20080;-54
2021/10/27 06:00:23;;;;;;;17.20;7.50;;;;;;;6.00;49.24;99606.13;5097010;28;20103;-54
2021/10/27 06:02:49;;;;;;;16.30;7.22;;;;;;;6.08;49.62;99603.88;5112089;28;20023;-52
2021/10/27 06:05:15;;;;;;;16.92;7.30;;;;;;;6.14;49.33;99602.59;5111881;28;20076;-53
2021/10/27 06:07:40;;;;;;;18.88;7.13;;;;;;;6.23;48.91;99598.50;5110689;28;20081;-54
2021/10/27 06:10:07;;;;;;;16.15;8.07;;;;;;;6.24;48.85;99577.13;5092053;28;20044;-52
2021/10/27 06:12:32;;;;;;;12.05;7.05;;;;;;;6.28;48.65;99575.13;5091601;28;20458;-51
2021/10/27 06:14:58;;;;;;;14.05;7.40;;;;;;;6.29;48.97;99564.38;5091111;28;20127;-58
2021/10/27 06:17:24;;;;;;;17.00;7.65;;;;;;;6.34;48.72;99569.41;5091814;28;20093;-58
2021/10/27 06:19:54;;;;;;;17.27;7.93;;;;;;;6.44;48.55;99582.94;5092820;28;20028;-57
2021/10/27 06:22:21;;;;;;;12.68;7.72;;;;;;;6.50;48.52;99563.03;5091360;28;20039;-55
2021/10/27 06:24:47;;;;;;;13.98;8.13;;;;;;;6.56;48.47;99565.28;5091069;28;20107;-54
2021/10/27 06:27:12;;;;;;;13.77;7.38;;;;;;;6.58;48.50;99552.72;5090637;28;20032;-56
2021/10/27 06:29:48;;;;;;;16.17;7.97;;;;;;;6.62;48.33;99556.88;5079089;28;20532;-56
2021/10/27 06:34:59;;;;;;;16.05;7.68;;;;;;;6.67;48.36;99554.75;5100074;28;20028;-51
2021/10/27 06:48:23;;;;;;;16.33;7.95;;;;;;;6.94;47.77;99561.78;5037917;28;20084;-53
2021/10/27 06:50:48;;;;;;;21.75;7.93;;;;;;;7.00;48.22;99572.00;5073686;28;20048;-55
2021/10/27 06:53:14;;;;;;;18.38;8.52;;;;;;;7.04;47.87;99549.53;5099024;28;20019;-57
2021/10/27 06:55:40;;;;;;;18.67;8.00;;;;;;;7.06;47.69;99552.06;5100554;28;20032;-55
2021/10/27 06:58:08;;;;;;;16.63;8.00;;;;;;;7.05;47.74;99537.06;5077358;28;20051;-55
2021/10/27 07:00:41;;;;;;;16.83;8.05;;;;;;;7.08;47.65;99536.00;5091286;28;20050;-59
2021/10/27 07:16:32;;;;;;;18.30;8.57;;;;;;;7.63;46.68;99536.53;5072374;28;20074;-55
2021/10/27 07:18:57;;;;;;;19.65;9.18;;;;;;;7.18;46.63;99451.84;5091019;28;20105;-56
2021/10/27 07:21:23;;;;;;;14.95;7.78;;;;;;;7.65;46.88;99512.41;5091576;28;20024;-55
2021/10/27 07:23:48;;;;;;;13.73;8.73;;;;;;;7.68;46.79;99506.84;5071957;28;20093;-57
2021/10/27 07:26:18;;;;;;;19.33;8.80;;;;;;;7.69;46.94;99519.22;5091111;28;20027;-56
2021/10/27 07:28:47;;;;;;;15.25;8.55;;;;;;;7.75;46.82;99526.78;5110251;28;20031;-61
2021/10/27 07:31:15;;;;;;;22.67;8.82;;;;;;;7.79;46.76;99516.72;5101882;28;20016;-61
2021/10/27 07:33:41;;;;;;;14.60;8.38;;;;;;;7.89;46.78;99525.75;5104611;28;20127;-57
2021/10/27 07:36:26;;;;;;;21.20;8.70;;;;;;;7.90;46.44;99498.97;5094532;28;20170;-59
2021/10/27 07:41:37;;;;;;;11.77;7.93;;;;;;;8.08;46.37;99514.56;5092229;28;20158;-61
2021/10/27 07:44:13;;;;;;;19.70;8.95;;;;;;;8.07;46.21;99512.84;5107834;28;20471;-59
2021/10/27 07:46:41;;;;;;;19.70;8.73;;;;;;;8.10;46.33;99507.28;5097809;28;20072;-59
2021/10/27 07:49:07;;;;;;;23.90;8.52;;;;;;;8.06;46.35;99500.50;5106831;28;20066;-59
2021/10/27 07:51:32;;;;;;;19.35;8.52;;;;;;;8.09;46.39;99494.91;5079733;28;20063;-60
2021/10/27 07:53:58;;;;;;;16.50;8.90;;;;;;;8.07;46.53;99496.84;5097837;28;20052;-60
2021/10/27 07:56:24;;;;;;;16.35;9.27;;;;;;;8.02;46.95;99483.03;5111876;28;20161;-57
2021/10/27 07:58:52;;;;;;;16.92;9.18;;;;;;;8.11;46.71;99492.16;5077766;28;20080;-58
2021/10/27 08:01:18;;;;;;;19.55;9.20;;;;;;;7.94;46.67;99448.06;5109902;28;20055;-59
2021/10/27 08:03:43;;;;;;;21.88;10.27;;;;;;;8.18;46.55;99488.88;5105150;28;20120;-55
2021/10/27 08:06:12;;;;;;;16.75;9.38;;;;;;;8.13;46.88;99485.72;5100345;28;20106;-55
2021/10/27 08:08:38;;;;;;;25.55;10.68;;;;;;;8.11;46.67;99481.47;5103217;28;20131;-58
2021/10/27 08:11:04;;;;;;;24.52;11.20;;;;;;;8.17;46.98;99486.34;5105756;28;20123;-56
2021/10/27 08:13:29;;;;;;;24.83;10.52;;;;;;;8.19;47.21;99489.75;5103144;28;20039;-57
2021/10/27 08:15:56;;;;;;;21.02;10.20;;;;;;;8.26;46.76;99496.28;5097154;28;20602;-57
2021/10/27 08:18:22;;;;;;;18.92;9.95;;;;;;;8.32;46.91;99490.50;5105133;28;20039;-59
2021/10/27 08:20:49;;;;;;;22.20;9.93;;;;;;;8.44;46.42;99487.84;5105023;28;20031;-54
2021/10/27 08:23:18;;;;;;;20.38;10.07;;;;;;;8.53;46.08;99489.00;5091411;28;20031;-57
2021/10/27 08:25:45;;;;;;;18.67;9.80;;;;;;;8.39;46.08;99448.19;5091523;28;20024;-59
2021/10/27 08:28:14;;;;;;;15.70;10.45;;;;;;;8.66;45.95;99479.06;5099617;28;20114;-55
2021/10/27 08:35:55;;;;;;;22.50;9.98;;;;;;;8.68;45.90;99469.13;5096637;28;20404;-60
2021/10/27 08:38:21;;;;;;;29.20;10.45;;;;;;;8.71;46.25;99476.03;5114666;27;20054;-56
2021/10/27 08:40:47;;;;;;;17.48;9.98;;;;;;;8.75;46.02;99481.00;5105529;28;20039;-60
2021/10/27 08:43:13;;;;;;;19.60;10.32;;;;;;;8.81;46.38;99469.00;5112282;28;20463;-55
2021/10/27 08:45:40;;;;;;;19.48;9.85;;;;;;;8.89;46.06;99481.72;5108651;28;20468;-62
2021/10/27 08:48:10;;;;;;;19.08;9.45;;;;;;;8.97;45.64;99476.66;5076240;28;20163;-63
2021/10/27 08:50:37;;;;;;;18.85;9.50;;;;;;;8.74;45.75;99427.75;5089547;28;20055;-66
2021/10/27 08:53:03;;;;;;;20.08;8.80;;;;;;;9.01;45.68;99456.72;5111749;28;20035;-60
2021/10/27 08:55:29;;;;;;;16.17;9.00;;;;;;;9.07;45.32;99465.22;5110059;28;20583;-61
2021/10/27 08:57:56;;;;;;;21.83;9.77;;;;;;;9.11;45.39;99455.97;5111636;28;20152;-62
2021/10/27 09:47:13;;;;;;;21.15;10.13;;;;;;;9.30;45.61;99450.03;5076552;28;20049;-63
2021/10/27 09:55:46;;;;;;;20.20;9.82;;;;;;;9.48;45.60;99445.81;5108406;28;20024;-61
2021/10/27 10:06:43;;;;;;;22.42;10.30;;;;;;;9.39;45.04;99417.19;5095929;28;20056;-63
2021/10/27 10:09:10;;;;;;;20.83;10.63;;;;;;;9.35;45.23;99434.47;5109047;28;20233;-66
2021/10/27 10:11:37;;;;;;;17.52;9.60;;;;;;;9.31;45.43;99422.31;5098103;28;20388;-61
2021/10/27 10:14:06;;;;;;;20.27;10.25;;;;;;;9.34;45.75;99428.25;5100159;28;20418;-60
2021/10/27 10:16:42;;;;;;;20.45;10.70;;;;;;;9.44;45.40;99438.19;5093029;28;20051;-64
2021/10/27 10:19:12;;;;;;;18.70;10.88;;;;;;;9.39;45.73;99443.03;5111570;28;20024;-61
2021/10/27 10:21:43;;;;;;;20.05;9.98;;;;;;;9.37;45.96;99443.19;5084423;28;20483;-61
2021/10/27 10:24:18;;;;;;;15.68;10.02;;;;;;;9.40;45.91;99440.25;5102704;28;20027;-62
2021/10/27 10:26:45;;;;;;;20.15;11.20;;;;;;;9.24;45.70;99427.31;5075996;28;20024;-61
2021/10/27 10:29:38;;;;;;;18.70;9.95;;;;;;;9.32;45.85;99418.69;5094899;28;20357;-62
2021/10/27 10:32:32;;;;;;;22.08;11.10;;;;;;;9.39;46.12;99424.34;5103668;28;20035;-59
2021/10/27 10:35:08;;;;;;;17.90;10.93;;;;;;;9.31;46.27;99423.16;5097109;28;20510;-60
2021/10/27 10:37:38;;;;;;;19.05;10.35;;;;;;;9.35;45.69;99421.09;5095590;28;20173;-62
2021/10/27 10:40:30;;;;;;;23.80;11.07;;;;;;;9.50;45.82;99435.00;5100427;28;20157;-61
2021/10/27 10:43:04;;;;;;;20.27;11.35;;;;;;;9.37;46.02;99427.16;5099937;28;20034;-62
2021/10/27 10:57:23;;;;;;;19.05;10.77;;;;;;;9.95;44.94;99411.75;5096512;28;20032;-60
2021/10/27 11:39:35;;;;;;;19.00;10.88;;;;;;;9.09;47.33;99449.91;5101254;28;20024;-59
2021/10/27 11:42:18;;;;;;;18.63;10.65;;;;;;;9.11;47.35;99453.31;5100749;28;20024;-58
2021/10/27 11:47:10;;;;;;;19.67;11.50;;;;;;;9.12;47.39;99438.97;5099562;28;20024;-58
2021/10/27 11:49:39;;;;;;;20.58;10.95;;;;;;;9.15;47.58;99446.75;5098257;28;20196;-60
2021/10/27 11:52:06;;;;;;;26.08;10.77;;;;;;;8.98;47.73;99418.75;5096311;28;20511;-60
2021/10/27 11:54:32;;;;;;;20.67;10.80;;;;;;;9.11;47.65;99432.81;5107136;28;20027;-58
2021/10/27 11:57:00;;;;;;;17.42;10.40;;;;;;;9.24;47.63;99448.69;5104506;28;20118;-59
2021/10/27 11:59:38;;;;;;;19.05;10.77;;;;;;;9.30;47.69;99458.88;5096957;28;20030;-59
2021/10/27 12:02:03;;;;;;;20.73;10.88;;;;;;;9.18;47.52;99443.84;5096748;28;20047;-59
2021/10/27 12:04:32;;;;;;;15.98;10.07;;;;;;;9.24;47.96;99462.03;5106646;28;20031;-58
2021/10/27 12:07:08;;;;;;;18.48;10.52;;;;;;;9.23;47.75;99465.69;5092824;28;20056;-58
2021/10/27 12:17:30;;;;;;;19.73;10.25;;;;;;;9.00;48.28;99436.34;5105503;28;20028;-58
2021/10/27 12:19:56;;;;;;;18.88;10.20;;;;;;;9.05;48.35;99460.84;5096778;28;20036;-59
2021/10/27 12:22:23;;;;;;;19.95;10.20;;;;;;;9.05;48.64;99458.19;5104597;28;20717;-60
2021/10/27 12:24:56;;;;;;;20.20;9.32;;;;;;;9.18;48.42;99475.91;5094344;28;20035;-60
2021/10/27 12:27:29;;;;;;;17.90;10.18;;;;;;;9.25;48.02;99460.22;5106529;28;20035;-59
2021/10/27 12:29:58;;;;;;;17.40;10.20;;;;;;;9.39;48.26;99477.78;5100705;28;20747;-60
2021/10/27 12:32:25;;;;;;;18.67;10.32;;;;;;;8.80;47.96;99378.34;5110156;28;20038;-62
2021/10/27 12:34:57;;;;;;;19.23;10.05;;;;;;;9.42;47.92;99475.72;5095117;28;20072;-60
2021/10/27 12:40:29;;;;;;;19.52;9.93;;;;;;;9.43;48.17;99480.09;5107444;28;20035;-59
2021/10/27 12:43:09;;;;;;;16.85;9.88;;;;;;;9.37;48.19;99479.72;5099391;28;20027;-58
2021/10/27 12:45:51;;;;;;;17.33;10.55;;;;;;;9.31;48.22;99479.25;5103173;28;20541;-60
2021/10/27 12:48:37;;;;;;;18.85;10.35;;;;;;;9.32;48.41;99488.16;5107342;28;20118;-57
2021/10/27 12:51:10;;;;;;;15.48;9.25;;;;;;;9.19;48.93;99490.97;5096292;28;20035;-62
2021/10/27 12:53:49;;;;;;;20.48;9.80;;;;;;;9.14;49.21;99495.78;5103057;28;20476;-61
2021/10/27 12:56:27;;;;;;;16.63;10.20;;;;;;;9.17;49.03;99506.25;5089214;28;20035;-62
2021/10/27 12:59:09;;;;;;;17.15;10.10;;;;;;;9.02;49.73;99501.16;5095048;28;20475;-65
2021/10/27 13:04:16;;;;;;;18.27;9.68;;;;;;;8.94;50.03;99513.41;5110509;28;20330;-62
2021/10/27 13:14:51;;;;;;;17.60;10.13;;;;;;;8.65;51.36;99527.22;5095604;28;20031;-61
2021/10/27 13:23:10;;;;;;;13.95;8.80;;;;;;;8.51;52.28;99541.63;5097844;28;20508;-63
2021/10/27 13:31:10;;;;;;;17.77;8.98;;;;;;;8.51;52.67;99530.97;5100481;28;20077;-59
2021/10/27 13:33:36;;;;;;;16.52;9.60;;;;;;;8.53;52.55;99539.69;5080521;28;20060;-64
2021/10/27 13:36:02;;;;;;;16.65;9.85;;;;;;;8.52;52.56;99524.66;5104762;28;20027;-60
2021/10/27 13:38:34;;;;;;;15.10;9.68;;;;;;;8.44;53.10;99512.72;5107321;28;20028;-58
2021/10/27 13:41:01;;;;;;;20.83;10.05;;;;;;;8.53;53.23;99531.69;5081112;28;20024;-61
2021/10/27 13:43:31;;;;;;;21.27;9.23;;;;;;;8.53;53.08;99537.03;5099593;28;20032;-64
2021/10/27 13:49:02;;;;;;;15.88;9.57;;;;;;;8.47;53.65;99525.84;5096301;28;20088;-61
2021/10/27 14:08:04;;;;;;;13.45;8.48;;;;;;;8.18;55.28;99568.88;5107221;28;20123;-62
2021/10/27 14:10:39;;;;;;;15.05;8.40;;;;;;;8.15;55.45;99570.94;5095555;28;20118;-65
2021/10/27 14:13:34;;;;;;;17.60;9.07;;;;;;;8.10;55.73;99567.78;5102776;28;20044;-60
2021/10/27 15:21:28;;;;;;;16.83;8.80;;;;;;;7.90;56.77;99570.09;5099226;28;20032;-53
2021/10/27 15:29:32;;;;;;;15.15;8.65;;;;;;;8.04;56.97;99598.41;5103463;28;20526;-57
2021/10/27 15:42:56;;;;;;;12.80;8.57;;;;;;;8.04;57.05;99604.56;5093534;28;20035;-59
2021/10/27 15:50:56;;;;;;;18.98;9.05;;;;;;;8.07;57.45;99600.84;5102336;28;20078;-54
2021/10/27 15:53:22;;;;;;;15.73;8.60;;;;;;;8.12;57.25;99604.00;5099817;28;20062;-55
2021/10/27 15:55:47;;;;;;;13.15;8.68;;;;;;;8.14;57.30;99604.75;5106240;28;20028;-57
2021/10/27 15:58:13;;;;;;;12.80;8.48;;;;;;;8.12;57.23;99604.00;5092405;28;20028;-56
2021/10/27 16:00:40;;;;;;;13.35;8.55;;;;;;;8.13;57.29;99602.22;5106430;28;20032;-59
2021/10/27 16:03:07;;;;;;;14.23;8.43;;;;;;;8.17;57.18;99609.84;5101202;28;20034;-59
2021/10/27 16:05:39;;;;;;;14.95;8.68;;;;;;;8.23;57.22;99618.38;5100049;28;20090;-58
2021/10/27 16:08:06;;;;;;;12.13;8.32;;;;;;;8.18;57.46;99608.88;5108446;28;20027;-59
2021/10/27 16:10:34;;;;;;;17.23;8.55;;;;;;;8.16;57.74;99605.47;5096947;28;20118;-59
2021/10/27 16:12:59;;;;;;;12.82;7.57;;;;;;;7.94;57.71;99576.03;5104143;28;20119;-54
2021/10/27 16:16:12;;;;;;;16.73;8.52;;;;;;;8.17;57.60;99614.34;5104197;28;20123;-55
2021/10/27 16:18:12;;;;;;;11.68;7.70;;;;;;;8.14;57.82;99615.41;5087689;28;20038;-57
2021/10/27 16:20:40;;;;;;;11.55;7.43;;;;;;;8.11;58.08;99594.31;5108786;28;20092;-58
2021/10/27 16:23:08;;;;;;;12.82;7.93;;;;;;;8.15;58.11;99616.28;5101117;28;20087;-57
2021/10/27 16:25:34;;;;;;;12.43;7.45;;;;;;;8.08;58.14;99601.66;5099146;28;20063;-60
2021/10/27 16:28:00;;;;;;;12.25;7.53;;;;;;;8.09;58.32;99612.25;5108803;28;20088;-59
2021/10/27 16:30:27;;;;;;;13.20;8.05;;;;;;;8.11;58.64;99612.97;5084586;28;20024;-59